createdAt,value
2023-01-22T00:01:09.204Z,-0.16
2023-01-22T00:03:36.844Z,-0.15
2023-01-22T00:06:03.435Z,-0.14
2023-01-22T00:08:29.941Z,-0.14
2023-01-22T00:10:56.588Z,-0.14
2023-01-22T00:13:24.709Z,-0.12
2023-01-22T00:15:51.570Z,-0.12
2023-01-22T00:18:21.619Z,-0.13
2023-01-22T00:20:49.385Z,-0.12
2023-01-22T00:23:20.609Z,-0.12
2023-01-22T00:25:47.281Z,-0.10
2023-01-22T00:28:14.305Z,-0.11
2023-01-22T00:30:43.309Z,-0.12
2023-01-22T00:33:09.806Z,-0.11
2023-01-22T00:35:36.290Z,-0.11
2023-01-22T00:38:03.844Z,-0.11
2023-01-22T00:40:32.675Z,-0.10
2023-01-22T00:42:59.098Z,-0.10
2023-01-22T00:45:25.495Z,-0.11
2023-01-22T00:47:56.794Z,-0.11
2023-01-22T00:50:23.331Z,-0.10
2023-01-22T00:52:50.077Z,-0.12
2023-01-22T00:55:16.751Z,-0.10
2023-01-22T00:57:43.603Z,-0.10
2023-01-22T01:00:11.718Z,-0.10
2023-01-22T01:02:58.652Z,-0.09
2023-01-22T01:05:25.930Z,-0.09
2023-01-22T01:07:52.709Z,-0.07
2023-01-22T01:10:20.127Z,-0.07
2023-01-22T01:12:46.980Z,-0.08
2023-01-22T01:15:15.795Z,-0.09
2023-01-22T01:17:42.566Z,-0.06
2023-01-22T01:20:10.175Z,-0.06
2023-01-22T01:22:36.716Z,-0.04
2023-01-22T01:25:03.719Z,-0.04
2023-01-22T01:27:31.756Z,-0.02
2023-01-22T01:30:00.871Z,-0.03
2023-01-22T01:32:30.487Z,-0.02
2023-01-22T01:34:59.239Z,0.02
2023-01-22T01:37:28.481Z,0.03
2023-01-22T01:39:54.992Z,0.03
2023-01-22T01:42:29.151Z,0.05
2023-01-22T01:45:25.940Z,0.06
2023-01-22T01:47:59.203Z,0.06
2023-01-22T01:50:28.252Z,0.06
2023-01-22T01:52:56.466Z,0.08
2023-01-22T01:55:28.708Z,0.09
2023-01-22T01:58:00.516Z,0.11
2023-01-22T02:00:31.041Z,0.09
2023-01-22T02:02:57.667Z,0.10
2023-01-22T02:05:27.662Z,0.10
2023-01-22T02:07:54.226Z,0.12
2023-01-22T02:10:20.808Z,0.14
2023-01-22T02:12:47.272Z,0.15
2023-01-22T02:15:14.338Z,0.15
2023-01-22T02:17:40.808Z,0.17
2023-01-22T02:20:07.619Z,0.17
2023-01-22T02:22:40.336Z,0.19
2023-01-22T02:25:10.003Z,0.18
2023-01-22T02:27:36.508Z,0.20
2023-01-22T02:30:03.056Z,0.20
2023-01-22T02:32:29.500Z,0.19
2023-01-22T02:34:58.429Z,0.20
2023-01-22T02:37:24.993Z,0.21
2023-01-22T02:39:51.482Z,0.21
2023-01-22T02:42:18.098Z,0.21
2023-01-22T02:44:47.095Z,0.21
2023-01-22T02:47:13.667Z,0.21
2023-01-22T02:49:40.085Z,0.21
2023-01-22T02:52:06.766Z,0.21
2023-01-22T02:54:33.247Z,0.21
2023-01-22T02:56:59.661Z,0.22
2023-01-22T02:59:29.300Z,0.23
2023-01-22T03:01:57.362Z,0.23
2023-01-22T03:04:24.620Z,0.22
2023-01-22T03:06:51.055Z,0.21
2023-01-22T03:09:22.793Z,0.21
2023-01-22T03:11:49.377Z,0.20
2023-01-22T03:14:34.897Z,0.21
2023-01-22T03:17:19.993Z,0.21
2023-01-22T03:20:05.392Z,0.25
2023-01-22T03:22:32.428Z,0.25
2023-01-22T03:25:01.438Z,0.27
2023-01-22T03:27:30.121Z,0.25
2023-01-22T03:29:59.278Z,0.27
2023-01-22T03:32:25.859Z,0.27
2023-01-22T03:34:53.848Z,0.28
2023-01-22T03:37:21.063Z,0.31
2023-01-22T03:39:48.297Z,0.30
2023-01-22T03:42:14.978Z,0.32
2023-01-22T03:44:41.604Z,0.33
2023-01-22T03:47:08.666Z,0.33
2023-01-22T03:49:35.306Z,0.34
2023-01-22T03:52:01.820Z,0.35
2023-01-22T03:54:28.205Z,0.34
2023-01-22T03:56:55.281Z,0.38
2023-01-22T03:59:25.038Z,0.37
2023-01-22T04:01:53.576Z,0.37
2023-01-22T04:04:20.398Z,0.38
2023-01-22T04:06:49.436Z,0.38
2023-01-22T04:09:16.275Z,0.37
2023-01-22T04:11:43.322Z,0.37
2023-01-22T04:14:12.937Z,0.38
2023-01-22T04:16:39.919Z,0.37
2023-01-22T04:19:06.527Z,0.36
2023-01-22T04:21:33.025Z,0.35
2023-01-22T04:23:59.839Z,0.37
2023-01-22T04:26:28.718Z,0.35
2023-01-22T04:28:56.364Z,0.38
2023-01-22T04:31:23.200Z,0.38
2023-01-22T04:33:52.449Z,0.37
2023-01-22T04:36:19.343Z,0.37
2023-01-22T04:38:45.859Z,0.37
2023-01-22T04:41:12.940Z,0.37
2023-01-22T04:43:44.292Z,0.36
2023-01-22T04:46:11.560Z,0.35
2023-01-22T04:48:38.371Z,0.35
2023-01-22T04:51:07.585Z,0.37
2023-01-22T04:53:34.407Z,0.36
2023-01-22T04:56:01.283Z,0.37
2023-01-22T04:58:27.837Z,0.38
2023-01-22T05:00:56.568Z,0.36
2023-01-22T05:03:26.636Z,0.35
2023-01-22T05:05:53.785Z,0.35
2023-01-22T05:08:20.441Z,0.35
2023-01-22T05:10:49.342Z,0.36
2023-01-22T05:13:16.070Z,0.37
2023-01-22T05:15:42.522Z,0.38
2023-01-22T05:18:09.468Z,0.37
2023-01-22T05:20:36.114Z,0.36
2023-01-22T05:23:02.953Z,0.35
2023-01-22T05:25:29.842Z,0.35
2023-01-22T05:27:56.271Z,0.34
2023-01-22T05:30:22.833Z,0.37
2023-01-22T05:32:49.309Z,0.36
2023-01-22T05:35:15.826Z,0.37
2023-01-22T05:37:42.829Z,0.37
2023-01-22T05:40:10.045Z,0.35
2023-01-22T05:42:37.033Z,0.37
2023-01-22T05:45:04.072Z,0.37
2023-01-22T05:47:30.519Z,0.40
2023-01-22T05:49:57.049Z,0.40
2023-01-22T05:52:23.661Z,0.43
2023-01-22T05:54:50.403Z,0.43
2023-01-22T05:57:16.808Z,0.43
2023-01-22T05:59:43.339Z,0.45
2023-01-22T06:02:10.165Z,0.46
2023-01-22T06:04:36.747Z,0.47
2023-01-22T06:07:03.190Z,0.45
2023-01-22T06:09:32.820Z,0.47
2023-01-22T06:11:59.333Z,0.45
2023-01-22T06:14:25.765Z,0.46
2023-01-22T06:16:52.721Z,0.47
2023-01-22T06:19:19.145Z,0.48
2023-01-22T06:21:45.635Z,0.51
2023-01-22T06:24:12.167Z,0.53
2023-01-22T06:26:39.014Z,0.51
2023-01-22T06:29:08.364Z,0.50
2023-01-22T06:31:34.965Z,0.49
2023-01-22T06:34:01.572Z,0.51
2023-01-22T06:36:27.942Z,0.49
2023-01-22T06:38:54.408Z,0.48
2023-01-22T06:41:23.252Z,0.47
2023-01-22T06:43:52.759Z,0.48
2023-01-22T06:46:21.710Z,0.48
2023-01-22T06:48:49.899Z,0.48
2023-01-22T06:51:17.044Z,0.48
2023-01-22T06:53:43.842Z,0.49
2023-01-22T06:56:10.308Z,0.47
2023-01-22T06:58:37.511Z,0.47
2023-01-22T07:01:06.749Z,0.53
2023-01-22T07:03:33.901Z,0.50
2023-01-22T07:06:04.358Z,0.51
2023-01-22T07:08:33.422Z,0.50
2023-01-22T07:11:01.009Z,0.49
2023-01-22T07:13:27.889Z,0.48
2023-01-22T07:15:54.568Z,0.52
2023-01-22T07:18:24.155Z,0.51
2023-01-22T07:20:56.770Z,0.51
2023-01-22T07:23:23.392Z,0.51
2023-01-22T07:25:51.820Z,0.51
2023-01-22T07:28:18.351Z,0.50
2023-01-22T07:30:48.131Z,0.51
2023-01-22T07:33:20.054Z,0.52
2023-01-22T07:35:55.408Z,0.54
2023-01-22T07:38:22.116Z,0.59
2023-01-22T07:40:49.125Z,0.60
2023-01-22T07:43:16.282Z,0.64
2023-01-22T07:45:42.696Z,0.68
2023-01-22T07:48:10.760Z,0.71
2023-01-22T07:50:40.090Z,0.70
2023-01-22T07:53:08.130Z,0.76
2023-01-22T07:55:34.601Z,0.77
2023-01-22T07:58:04.351Z,0.82
2023-01-22T08:00:35.507Z,0.84
2023-01-22T08:03:04.482Z,0.88
2023-01-22T08:05:31.003Z,0.93
2023-01-22T08:07:57.431Z,0.98
2023-01-22T08:10:26.136Z,1.03
2023-01-22T08:12:55.593Z,1.04
2023-01-22T08:15:22.563Z,1.12
2023-01-22T08:17:51.034Z,1.19
2023-01-22T08:20:18.068Z,1.32
2023-01-22T08:22:45.411Z,1.37
2023-01-22T08:25:11.862Z,1.41
2023-01-22T08:27:38.428Z,1.51
2023-01-22T08:30:05.874Z,1.60
2023-01-22T08:32:32.337Z,1.66
2023-01-22T08:34:58.879Z,1.79
2023-01-22T08:37:26.020Z,1.82
2023-01-22T08:39:52.485Z,1.72
2023-01-22T08:42:24.048Z,1.68
2023-01-22T08:44:50.451Z,1.82
2023-01-22T08:47:17.057Z,1.85
2023-01-22T08:49:43.696Z,1.76
2023-01-22T08:52:10.316Z,1.77
2023-01-22T08:54:39.181Z,1.70
2023-01-22T08:57:05.553Z,1.70
2023-01-22T08:59:32.445Z,1.79
2023-01-22T09:01:59.931Z,1.64
2023-01-22T09:04:26.721Z,1.76
2023-01-22T09:06:53.230Z,1.72
2023-01-22T09:09:19.586Z,1.72
2023-01-22T09:11:46.800Z,1.71
2023-01-22T09:14:18.445Z,1.73
2023-01-22T09:16:45.096Z,1.76
2023-01-22T09:19:12.057Z,1.71
2023-01-22T09:21:38.743Z,1.77
2023-01-22T09:24:06.623Z,1.71
2023-01-22T09:26:33.792Z,1.76
2023-01-22T09:29:01.315Z,1.78
2023-01-22T09:31:30.611Z,1.83
2023-01-22T09:33:57.006Z,1.87
2023-01-22T09:36:23.682Z,1.81
2023-01-22T09:38:50.594Z,1.86
2023-01-22T09:41:39.067Z,1.80
2023-01-22T09:44:12.857Z,1.85
2023-01-22T09:46:44.521Z,1.83
2023-01-22T09:49:17.964Z,1.91
2023-01-22T09:52:00.578Z,1.93
2023-01-22T09:54:29.375Z,1.87
2023-01-22T09:56:58.483Z,1.97
2023-01-22T09:59:48.914Z,2.19
2023-01-22T10:02:28.037Z,2.06
2023-01-22T10:05:00.937Z,2.18
2023-01-22T10:07:39.631Z,2.28
2023-01-22T10:10:18.631Z,2.20
2023-01-22T10:12:51.118Z,2.25
2023-01-22T10:15:22.287Z,2.18
2023-01-22T10:17:49.171Z,2.05
2023-01-22T10:20:18.791Z,2.19
2023-01-22T10:22:45.592Z,2.30
2023-01-22T10:25:16.571Z,2.37
2023-01-22T10:27:44.784Z,2.30
2023-01-22T10:30:14.520Z,2.37
2023-01-22T10:32:41.000Z,2.54
2023-01-22T10:35:18.311Z,2.42
2023-01-22T10:37:48.734Z,2.44
2023-01-22T10:40:30.981Z,2.53
2023-01-22T10:43:17.650Z,2.60
2023-01-22T10:46:01.464Z,2.66
2023-01-22T10:48:27.921Z,2.60
2023-01-22T10:51:11.997Z,2.68
2023-01-22T10:53:45.607Z,2.96
2023-01-22T10:56:13.034Z,3.12
2023-01-22T10:58:46.048Z,3.09
2023-01-22T11:01:26.978Z,3.17
2023-01-22T11:03:53.533Z,3.04
2023-01-22T11:06:30.076Z,3.14
2023-01-22T11:09:23.847Z,2.89
2023-01-22T11:12:18.262Z,2.95
2023-01-22T11:14:47.781Z,2.92
2023-01-22T11:17:27.540Z,2.76
2023-01-22T11:20:02.783Z,2.69
2023-01-22T11:22:35.196Z,2.61
2023-01-22T11:25:02.676Z,2.87
2023-01-22T11:27:49.887Z,2.65
2023-01-22T11:30:37.288Z,2.91
2023-01-22T11:33:21.501Z,2.85
2023-01-22T11:35:56.207Z,2.97
2023-01-22T11:38:38.579Z,3.17
2023-01-22T11:41:16.432Z,2.91
2023-01-22T11:44:20.511Z,3.00
2023-01-22T11:47:04.704Z,2.84
2023-01-22T11:49:55.421Z,2.87
2023-01-22T11:52:37.320Z,3.03
2023-01-22T11:55:40.964Z,3.05
2023-01-22T11:58:24.436Z,3.05
2023-01-22T12:01:08.616Z,3.19
2023-01-22T12:04:10.461Z,3.13
2023-01-22T12:07:11.889Z,3.15
2023-01-22T12:09:56.239Z,3.18
2023-01-22T12:12:43.963Z,3.05
2023-01-22T12:15:34.401Z,2.75
2023-01-22T12:18:03.683Z,2.70
2023-01-22T12:21:05.848Z,2.82
2023-01-22T12:23:38.130Z,2.94
2023-01-22T12:26:04.674Z,3.13
2023-01-22T12:28:34.642Z,3.09
2023-01-22T12:31:05.402Z,3.29
2023-01-22T12:33:38.192Z,3.21
2023-01-22T12:36:07.952Z,3.26
2023-01-22T12:38:56.081Z,3.16
2023-01-22T12:41:52.296Z,3.23
2023-01-22T12:44:46.135Z,3.07
2023-01-22T12:47:21.824Z,3.08
2023-01-22T12:49:52.287Z,3.03
2023-01-22T12:52:27.966Z,3.16
2023-01-22T12:54:55.597Z,3.11
2023-01-22T12:57:21.985Z,3.19
2023-01-22T12:59:54.496Z,3.14
2023-01-22T13:02:32.025Z,3.16
2023-01-22T13:05:12.670Z,3.17
2023-01-22T13:07:43.019Z,3.19
2023-01-22T13:10:26.519Z,3.16
2023-01-22T13:13:03.176Z,3.14
2023-01-22T13:15:37.364Z,3.33
2023-01-22T13:18:19.321Z,3.22
2023-01-22T13:20:56.708Z,3.04
2023-01-22T13:23:26.434Z,2.93
2023-01-22T13:25:57.141Z,2.94
2023-01-22T13:28:25.297Z,2.83
2023-01-22T13:31:13.371Z,2.84
2023-01-22T13:33:39.866Z,2.84
2023-01-22T13:36:14.956Z,2.93
2023-01-22T13:38:41.439Z,2.85
2023-01-22T13:41:10.991Z,2.87
2023-01-22T13:43:39.490Z,2.87
2023-01-22T13:46:07.043Z,2.79
2023-01-22T13:48:36.178Z,2.75
2023-01-22T13:51:14.440Z,2.73
2023-01-22T13:53:45.777Z,2.70
2023-01-22T13:56:17.112Z,2.55
2023-01-22T13:58:48.870Z,2.57
2023-01-22T14:01:33.555Z,2.53
2023-01-22T14:04:24.530Z,2.45
2023-01-22T14:06:51.160Z,2.47
2023-01-22T14:09:31.286Z,2.42
2023-01-22T14:11:59.387Z,2.44
2023-01-22T14:14:31.029Z,2.39
2023-01-22T14:16:57.506Z,2.35
2023-01-22T14:19:23.978Z,2.37
2023-01-22T14:21:50.390Z,2.35
2023-01-22T14:24:16.870Z,2.34
2023-01-22T14:26:43.599Z,2.34
2023-01-22T14:29:10.054Z,2.36
2023-01-22T14:31:39.387Z,2.33
2023-01-22T14:34:06.048Z,2.31
2023-01-22T14:36:33.302Z,2.27
2023-01-22T14:39:00.249Z,2.22
2023-01-22T14:41:27.210Z,2.22
2023-01-22T14:43:53.716Z,2.23
2023-01-22T14:46:20.277Z,2.23
2023-01-22T14:48:47.394Z,2.22
2023-01-22T14:51:14.094Z,2.18
2023-01-22T14:53:40.647Z,2.16
2023-01-22T14:56:07.491Z,2.14
2023-01-22T14:58:33.917Z,2.12
2023-01-22T15:01:13.325Z,2.11
2023-01-22T15:03:39.824Z,2.08
2023-01-22T15:06:06.268Z,2.05
2023-01-22T15:08:32.666Z,2.04
2023-01-22T15:11:02.961Z,2.02
2023-01-22T15:13:29.339Z,2.01
2023-01-22T15:15:56.141Z,2.02
2023-01-22T15:18:22.695Z,1.99
2023-01-22T15:20:49.331Z,1.98
2023-01-22T15:23:16.378Z,1.94
2023-01-22T15:25:42.816Z,1.94
2023-01-22T15:28:09.219Z,1.93
2023-01-22T15:30:40.492Z,1.92
2023-01-22T15:33:07.558Z,1.89
2023-01-22T15:35:34.222Z,1.88
2023-01-22T15:38:05.906Z,1.87
2023-01-22T15:40:32.449Z,1.86
2023-01-22T15:42:58.854Z,1.85
2023-01-22T15:45:25.490Z,1.83
2023-01-22T15:47:53.552Z,1.80
2023-01-22T15:50:21.460Z,1.80
2023-01-22T15:52:55.020Z,1.80
2023-01-22T15:55:21.753Z,1.79
2023-01-22T15:57:48.313Z,1.77
2023-01-22T16:00:15.390Z,1.78
2023-01-22T16:02:42.306Z,1.77
2023-01-22T16:05:13.102Z,1.74
2023-01-22T16:07:39.567Z,1.71
2023-01-22T16:10:06.249Z,1.70
2023-01-22T16:12:34.810Z,1.71
2023-01-22T16:15:01.419Z,1.70
2023-01-22T16:17:27.953Z,1.69
2023-01-22T16:19:54.340Z,1.65
2023-01-22T16:22:23.424Z,1.64
2023-01-22T16:24:52.203Z,1.65
2023-01-22T16:27:18.746Z,1.65
2023-01-22T16:29:47.847Z,1.63
2023-01-22T16:32:14.293Z,1.64
2023-01-22T16:34:42.929Z,1.62
2023-01-22T16:37:09.360Z,1.64
2023-01-22T16:39:36.733Z,1.64
2023-01-22T16:42:03.462Z,1.63
2023-01-22T16:44:33.767Z,1.62
2023-01-22T16:47:00.795Z,1.64
2023-01-22T16:49:32.702Z,1.62
2023-01-22T16:52:21.975Z,1.62
2023-01-22T16:54:49.811Z,1.60
2023-01-22T16:57:18.129Z,1.61
2023-01-22T16:59:47.521Z,1.62
2023-01-22T17:02:16.473Z,1.63
2023-01-22T17:04:54.339Z,1.61
2023-01-22T17:07:33.283Z,1.64
2023-01-22T17:10:03.647Z,1.63
2023-01-22T17:12:33.909Z,1.62
2023-01-22T17:15:03.587Z,1.65
2023-01-22T17:17:32.583Z,1.63
2023-01-22T17:19:59.248Z,1.61
2023-01-22T17:22:26.593Z,1.63
2023-01-22T17:24:53.538Z,1.62
2023-01-22T17:27:21.609Z,1.60
2023-01-22T17:29:53.223Z,1.60
2023-01-22T17:32:20.652Z,1.59
2023-01-22T17:34:47.105Z,1.59
2023-01-22T17:37:13.922Z,1.61
2023-01-22T17:39:42.815Z,1.60
2023-01-22T17:42:09.515Z,1.60
2023-01-22T17:44:36.040Z,1.56
2023-01-22T17:47:07.357Z,1.55
2023-01-22T17:49:36.123Z,1.59
2023-01-22T17:52:03.283Z,1.56
2023-01-22T17:54:30.076Z,1.53
2023-01-22T17:56:56.939Z,1.57
2023-01-22T17:59:25.836Z,1.54
2023-01-22T18:01:54.712Z,1.51
2023-01-22T18:04:23.940Z,1.48
2023-01-22T18:06:50.376Z,1.53
2023-01-22T18:09:20.679Z,1.55
2023-01-22T18:11:47.591Z,1.54
2023-01-22T18:14:21.715Z,1.55
2023-01-22T18:16:50.751Z,1.51
2023-01-22T18:19:22.793Z,1.54
2023-01-22T18:21:49.662Z,1.53
2023-01-22T18:24:23.059Z,1.50
2023-01-22T18:26:50.588Z,1.49
2023-01-22T18:29:17.076Z,1.50
2023-01-22T18:31:44.477Z,1.52
2023-01-22T18:34:14.490Z,1.49
2023-01-22T18:36:42.395Z,1.49
2023-01-22T18:39:12.729Z,1.54
2023-01-22T18:41:40.720Z,1.54
2023-01-22T18:44:08.747Z,1.53
2023-01-22T18:46:41.464Z,1.57
2023-01-22T18:49:12.259Z,1.54
2023-01-22T18:51:41.843Z,1.54
2023-01-22T18:54:13.428Z,1.54
2023-01-22T18:56:42.587Z,1.56
2023-01-22T18:59:09.148Z,1.55
2023-01-22T19:01:38.553Z,1.50
2023-01-22T19:04:09.769Z,1.51
2023-01-22T19:06:37.918Z,1.52
2023-01-22T19:09:09.506Z,1.49
2023-01-22T19:11:39.227Z,1.49
2023-01-22T19:14:09.099Z,1.46
2023-01-22T19:16:37.470Z,1.43
2023-01-22T19:19:11.266Z,1.43
2023-01-22T19:21:43.537Z,1.39
2023-01-22T19:24:11.559Z,1.40
2023-01-22T19:26:38.399Z,1.46
2023-01-22T19:29:09.407Z,1.43
2023-01-22T19:31:40.759Z,1.48
2023-01-22T19:34:09.077Z,1.49
2023-01-22T19:36:40.442Z,1.50
2023-01-22T19:39:13.617Z,1.48
2023-01-22T19:41:41.234Z,1.49
2023-01-22T19:44:09.673Z,1.49
2023-01-22T19:46:39.366Z,1.46
2023-01-22T19:49:06.926Z,1.46
2023-01-22T19:51:36.022Z,1.50
2023-01-22T19:54:04.596Z,1.47
2023-01-22T19:56:33.734Z,1.48
2023-01-22T19:59:05.812Z,1.51
2023-01-22T20:01:36.736Z,1.55
2023-01-22T20:04:07.255Z,1.54
2023-01-22T20:06:33.751Z,1.54
2023-01-22T20:09:03.607Z,1.55
2023-01-22T20:11:32.670Z,1.53
2023-01-22T20:13:59.208Z,1.51
2023-01-22T20:16:28.265Z,1.50
2023-01-22T20:18:56.883Z,1.46
2023-01-22T20:21:25.333Z,1.50
2023-01-22T20:23:52.544Z,1.48
2023-01-22T20:26:21.411Z,1.48
2023-01-22T20:28:51.152Z,1.46
2023-01-22T20:31:23.063Z,1.45
2023-01-22T20:33:54.652Z,1.41
2023-01-22T20:36:24.477Z,1.46
2023-01-22T20:38:53.279Z,1.41
2023-01-22T20:41:21.628Z,1.46
2023-01-22T20:43:48.357Z,1.44
2023-01-22T20:46:20.563Z,1.42
2023-01-22T20:48:47.591Z,1.42
2023-01-22T20:51:16.595Z,1.41
2023-01-22T20:53:44.238Z,1.43
2023-01-22T20:56:26.955Z,1.40
2023-01-22T20:58:58.631Z,1.43
2023-01-22T21:01:25.482Z,1.42
2023-01-22T21:03:55.800Z,1.43
2023-01-22T21:06:22.609Z,1.39
2023-01-22T21:08:52.415Z,1.45
2023-01-22T21:11:20.786Z,1.43
2023-01-22T21:13:49.167Z,1.42
2023-01-22T21:16:18.942Z,1.41
2023-01-22T21:18:46.686Z,1.39
2023-01-22T21:21:18.634Z,1.38
2023-01-22T21:23:48.903Z,1.37
2023-01-22T21:26:19.082Z,1.35
2023-01-22T21:28:48.443Z,1.39
2023-01-22T21:31:18.311Z,1.40
2023-01-22T21:33:48.665Z,1.40
2023-01-22T21:36:18.244Z,1.41
2023-01-22T21:38:47.846Z,1.37
2023-01-22T21:41:16.954Z,1.35
2023-01-22T21:44:04.258Z,1.40
2023-01-22T21:46:42.508Z,1.38
2023-01-22T21:49:19.909Z,1.40
2023-01-22T21:51:52.050Z,1.35
2023-01-22T21:54:22.033Z,1.36
2023-01-22T21:56:49.185Z,1.35
2023-01-22T21:59:15.884Z,1.37
2023-01-22T22:01:43.093Z,1.37
2023-01-22T22:04:10.098Z,1.37
2023-01-22T22:06:39.586Z,1.35
2023-01-22T22:09:10.583Z,1.32
2023-01-22T22:11:37.110Z,1.32
2023-01-22T22:14:05.700Z,1.30
2023-01-22T22:16:36.119Z,1.31
2023-01-22T22:19:02.663Z,1.33
2023-01-22T22:21:29.053Z,1.36
2023-01-22T22:23:58.016Z,1.35
2023-01-22T22:26:27.564Z,1.38
2023-01-22T22:28:54.287Z,1.40
2023-01-22T22:31:23.151Z,1.40
2023-01-22T22:33:52.285Z,1.41
2023-01-22T22:36:22.008Z,1.38
2023-01-22T22:38:54.092Z,1.40
2023-01-22T22:41:26.530Z,1.45
2023-01-22T22:43:54.603Z,1.48
2023-01-22T22:46:22.998Z,1.49
2023-01-22T22:48:50.114Z,1.51
2023-01-22T22:51:27.307Z,1.53
2023-01-22T22:53:56.929Z,1.54
2023-01-22T22:56:24.308Z,1.53
2023-01-22T22:58:51.872Z,1.56
2023-01-22T23:01:21.546Z,1.55
2023-01-22T23:03:48.550Z,1.55
2023-01-22T23:06:21.324Z,1.53
2023-01-22T23:08:58.398Z,1.51
2023-01-22T23:11:27.192Z,1.49
2023-01-22T23:13:54.096Z,1.48
2023-01-22T23:16:22.778Z,1.48
2023-01-22T23:18:53.857Z,1.45
2023-01-22T23:21:25.019Z,1.45
2023-01-22T23:23:52.381Z,1.42
2023-01-22T23:26:22.938Z,1.42
2023-01-22T23:28:51.927Z,1.41
2023-01-22T23:31:18.709Z,1.39
2023-01-22T23:33:45.418Z,1.36
2023-01-22T23:36:14.692Z,1.34
2023-01-22T23:38:41.194Z,1.32
2023-01-22T23:41:09.928Z,1.32
2023-01-22T23:43:39.443Z,1.30
2023-01-22T23:46:10.862Z,1.31
2023-01-22T23:48:37.653Z,1.27
2023-01-22T23:51:06.292Z,1.23
2023-01-22T23:53:35.849Z,1.24
2023-01-22T23:56:04.003Z,1.18
2023-01-22T23:58:30.644Z,1.15
